الصفحة الرئيسية
METAR-TAF:

METAR-TAF

مطار :

بريزبين, أستراليا

دائرة عرض: 27-23S, خط طول: 153-06E, ارتفاع: 4 متر

مراقبة الطقس الحالي

تاريخ ووقت الإصدار 32 دقيقة قبل الساعة 15:30UTC
ريح 7 عقدة من الجنوب/الجنوب الغربي
درجة الحرارة 13°درجة مئوية
الرطوبة 72%
ضغط 1020 hPa
الرؤية 10 كم أو أكثر
الغيوم لا تقل 1500 م ولا وجود لمزنة ركامية السحاب الأسود

METAR: YBBN 221530Z 21007KT CAVOK 13/08 Q1020 NOSIG

زمن: 02:02 (16:02 UTC)

توقعات

تاريخ ووقت الإصدار 4ساعات و 59 دقيقة قبل الساعة 11:03UTC
التوقعات صالحة من22 الساعة 12 UTC إلى 23 الساعة 18 UTC
ريح 6 عقدة من الجنوب/الجنوب الغربي
الرؤية 10 كم أو أكثر
غيوم قليلة على ارتفاع 3000 قدم
من 23 الساعة 0000 UTC
ريح 12 عقدة من الجنوب الشرقي
الرؤية 10 كم أو أكثر
غيوم متفرقة على ارتفاع 3500 قدم
من 23 الساعة 0900 UTC
ريح 7 عقدة من الجنوب
الرؤية 10 كم أو أكثر
غيوم متفرقة على ارتفاع 3000 قدم
من 23 الساعة 1200 UTC
ريح 6 عقدة من الجنوب
الرؤية 10 كم أو أكثر
غيوم متفرقة على ارتفاع 2500 قدم

TAF: YBBN 221103Z 2212/2318 20006KT 9999 FEW030 FM230000 14012KT 9999 SCT035 FM230900 17007KT 9999 SCT030 FM231200 19006KT 9999 SCT025

أرصاد الطقس والتوقعات من أكثر من 4000 مطار (تقارير الطقس للمطار METAR والتنبؤ بالطقس بالمطارTAF).

المحطات المتاحة هي النقط الصفراء والحمراء على الخريطة.

حرك المؤشر فوق النقطة لمعرفة اسم المحطة.

ثم انقر لمعرفة أرصاد وتوقعات الطقس.

لتغيير الخارطة: اضغط على الأزرار الخضراء مع رمز الصليب الأسود للتكبير. على الزر الأخضر مع شرطة للتصغير، أو على الأسهم الخضراء للخرائط المجاورة.


METAR-TAF: